sensor_id;sensor_type;location;lat;lon;timestamp;P1;durP1;ratioP1;P2;durP2;ratioP2
2313;SDS011;42279;51.388;7.000;2023-05-15T00:00:08;9.90;;;9.30;;
2313;SDS011;42279;51.388;7.000;2023-05-15T00:02:35;16.10;;;15.00;;
2313;SDS011;42279;51.388;7.000;2023-05-15T00:05:02;18.00;;;15.80;;
2313;SDS011;42279;51.388;7.000;2023-05-15T00:07:28;10.20;;;9.43;;
2313;SDS011;42279;51.388;7.000;2023-05-15T00:09:54;24.47;;;22.57;;
2313;SDS011;42279;51.388;7.000;2023-05-15T00:12:20;14.83;;;13.47;;
2313;SDS011;42279;51.388;7.000;2023-05-15T00:14:46;11.67;;;10.97;;
2313;SDS011;42279;51.388;7.000;2023-05-15T00:17:15;13.10;;;12.23;;
2313;SDS011;42279;51.388;7.000;2023-05-15T00:19:41;12.47;;;11.67;;
2313;SDS011;42279;51.388;7.000;2023-05-15T00:22:07;12.93;;;12.03;;
2313;SDS011;42279;51.388;7.000;2023-05-15T00:24:33;11.47;;;10.67;;
2313;SDS011;42279;51.388;7.000;2023-05-15T00:26:59;13.13;;;12.30;;
2313;SDS011;42279;51.388;7.000;2023-05-15T00:29:28;10.53;;;9.93;;
2313;SDS011;42279;51.388;7.000;2023-05-15T00:31:55;13.27;;;12.30;;
2313;SDS011;42279;51.388;7.000;2023-05-15T00:34:21;11.50;;;10.80;;
2313;SDS011;42279;51.388;7.000;2023-05-15T00:36:47;11.23;;;10.43;;
2313;SDS011;42279;51.388;7.000;2023-05-15T00:39:13;13.63;;;12.30;;
2313;SDS011;42279;51.388;7.000;2023-05-15T00:41:40;11.10;;;10.50;;
2313;SDS011;42279;51.388;7.000;2023-05-15T00:44:06;11.13;;;10.00;;
2313;SDS011;42279;51.388;7.000;2023-05-15T00:46:34;12.67;;;10.50;;
2313;SDS011;42279;51.388;7.000;2023-05-15T00:49:02;12.17;;;11.20;;
2313;SDS011;42279;51.388;7.000;2023-05-15T00:51:29;11.87;;;11.00;;
2313;SDS011;42279;51.388;7.000;2023-05-15T00:53:55;12.13;;;11.20;;
2313;SDS011;42279;51.388;7.000;2023-05-15T00:56:22;12.33;;;11.37;;
2313;SDS011;42279;51.388;7.000;2023-05-15T00:58:48;10.43;;;9.73;;
2313;SDS011;42279;51.388;7.000;2023-05-15T01:01:15;11.23;;;10.47;;
2313;SDS011;42279;51.388;7.000;2023-05-15T01:03:42;11.67;;;10.90;;
2313;SDS011;42279;51.388;7.000;2023-05-15T01:06:08;13.03;;;11.73;;
2313;SDS011;42279;51.388;7.000;2023-05-15T01:08:41;12.67;;;11.77;;
2313;SDS011;42279;51.388;7.000;2023-05-15T01:11:08;11.50;;;10.70;;
2313;SDS011;42279;51.388;7.000;2023-05-15T01:13:34;11.17;;;10.47;;
2313;SDS011;42279;51.388;7.000;2023-05-15T01:16:00;10.93;;;10.13;;
2313;SDS011;42279;51.388;7.000;2023-05-15T01:18:26;10.90;;;10.30;;
2313;SDS011;42279;51.388;7.000;2023-05-15T01:28:45;12.43;;;11.60;;
2313;SDS011;42279;51.388;7.000;2023-05-15T01:31:10;13.50;;;12.57;;
2313;SDS011;42279;51.388;7.000;2023-05-15T01:33:41;11.40;;;10.60;;
2313;SDS011;42279;51.388;7.000;2023-05-15T01:36:26;12.33;;;11.43;;
2313;SDS011;42279;51.388;7.000;2023-05-15T01:38:59;11.70;;;10.93;;
2313;SDS011;42279;51.388;7.000;2023-05-15T01:43:58;11.93;;;11.03;;
2313;SDS011;42279;51.388;7.000;2023-05-15T01:46:25;12.07;;;11.07;;
2313;SDS011;42279;51.388;7.000;2023-05-15T01:48:52;11.43;;;10.10;;
2313;SDS011;42279;51.388;7.000;2023-05-15T01:51:20;11.90;;;10.63;;
2313;SDS011;42279;51.388;7.000;2023-05-15T01:53:47;11.80;;;11.00;;
2313;SDS011;42279;51.388;7.000;2023-05-15T01:56:14;12.60;;;11.60;;
2313;SDS011;42279;51.388;7.000;2023-05-15T01:58:40;11.07;;;10.17;;
2313;SDS011;42279;51.388;7.000;2023-05-15T02:01:07;12.20;;;11.30;;
2313;SDS011;42279;51.388;7.000;2023-05-15T02:03:33;12.50;;;11.40;;
2313;SDS011;42279;51.388;7.000;2023-05-15T02:06:01;12.80;;;11.60;;
2313;SDS011;42279;51.388;7.000;2023-05-15T02:08:27;12.93;;;11.73;;
2313;SDS011;42279;51.388;7.000;2023-05-15T02:10:55;12.87;;;11.67;;
2313;SDS011;42279;51.388;7.000;2023-05-15T02:13:21;11.70;;;10.83;;
2313;SDS011;42279;51.388;7.000;2023-05-15T02:15:49;14.80;;;12.10;;
2313;SDS011;42279;51.388;7.000;2023-05-15T02:18:15;12.40;;;11.50;;
2313;SDS011;42279;51.388;7.000;2023-05-15T02:20:41;12.47;;;11.47;;
2313;SDS011;42279;51.388;7.000;2023-05-15T02:23:08;12.67;;;11.67;;
2313;SDS011;42279;51.388;7.000;2023-05-15T02:25:45;12.70;;;11.50;;
2313;SDS011;42279;51.388;7.000;2023-05-15T02:28:20;11.90;;;11.03;;
2313;SDS011;42279;51.388;7.000;2023-05-15T02:30:52;12.00;;;10.90;;
2313;SDS011;42279;51.388;7.000;2023-05-15T02:33:23;11.60;;;10.57;;
2313;SDS011;42279;51.388;7.000;2023-05-15T02:35:52;10.97;;;10.20;;
2313;SDS011;42279;51.388;7.000;2023-05-15T02:38:22;11.37;;;10.67;;
2313;SDS011;42279;51.388;7.000;2023-05-15T02:40:48;14.20;;;11.97;;
2313;SDS011;42279;51.388;7.000;2023-05-15T02:43:14;13.40;;;12.20;;
2313;SDS011;42279;51.388;7.000;2023-05-15T02:45:43;15.70;;;12.70;;
2313;SDS011;42279;51.388;7.000;2023-05-15T02:48:11;16.03;;;14.60;;
2313;SDS011;42279;51.388;7.000;2023-05-15T02:50:37;18.00;;;15.80;;
2313;SDS011;42279;51.388;7.000;2023-05-15T02:53:04;19.47;;;16.67;;
2313;SDS011;42279;51.388;7.000;2023-05-15T02:55:31;17.67;;;15.87;;
2313;SDS011;42279;51.388;7.000;2023-05-15T02:57:57;18.00;;;15.63;;
2313;SDS011;42279;51.388;7.000;2023-05-15T03:00:23;20.67;;;17.27;;
2313;SDS011;42279;51.388;7.000;2023-05-15T03:02:50;21.63;;;19.47;;
2313;SDS011;42279;51.388;7.000;2023-05-15T03:05:16;28.30;;;20.13;;
2313;SDS011;42279;51.388;7.000;2023-05-15T03:07:42;25.40;;;18.50;;
2313;SDS011;42279;51.388;7.000;2023-05-15T03:10:08;26.07;;;21.43;;
2313;SDS011;42279;51.388;7.000;2023-05-15T03:12:34;22.40;;;19.90;;
2313;SDS011;42279;51.388;7.000;2023-05-15T03:15:00;29.00;;;21.97;;
2313;SDS011;42279;51.388;7.000;2023-05-15T03:17:26;21.83;;;18.90;;
2313;SDS011;42279;51.388;7.000;2023-05-15T03:19:52;20.70;;;17.70;;
2313;SDS011;42279;51.388;7.000;2023-05-15T03:22:18;27.97;;;20.93;;
2313;SDS011;42279;51.388;7.000;2023-05-15T03:24:45;25.87;;;20.97;;
2313;SDS011;42279;51.388;7.000;2023-05-15T03:27:11;29.40;;;22.57;;
2313;SDS011;42279;51.388;7.000;2023-05-15T03:29:37;30.77;;;20.80;;
2313;SDS011;42279;51.388;7.000;2023-05-15T03:32:03;26.17;;;20.40;;
2313;SDS011;42279;51.388;7.000;2023-05-15T03:34:29;24.87;;;20.67;;
2313;SDS011;42279;51.388;7.000;2023-05-15T03:36:56;32.03;;;21.07;;
2313;SDS011;42279;51.388;7.000;2023-05-15T03:39:22;30.07;;;22.23;;
2313;SDS011;42279;51.388;7.000;2023-05-15T03:41:48;33.47;;;25.83;;
2313;SDS011;42279;51.388;7.000;2023-05-15T03:44:14;34.10;;;25.67;;
2313;SDS011;42279;51.388;7.000;2023-05-15T03:46:40;32.10;;;25.90;;
2313;SDS011;42279;51.388;7.000;2023-05-15T03:49:06;35.60;;;25.53;;
2313;SDS011;42279;51.388;7.000;2023-05-15T03:51:32;37.77;;;28.37;;
2313;SDS011;42279;51.388;7.000;2023-05-15T03:53:58;47.50;;;29.83;;
2313;SDS011;42279;51.388;7.000;2023-05-15T03:56:24;48.83;;;28.93;;
2313;SDS011;42279;51.388;7.000;2023-05-15T03:58:51;51.10;;;31.73;;
2313;SDS011;42279;51.388;7.000;2023-05-15T04:01:17;57.40;;;34.30;;
2313;SDS011;42279;51.388;7.000;2023-05-15T04:03:43;62.27;;;38.43;;
2313;SDS011;42279;51.388;7.000;2023-05-15T04:06:09;65.80;;;42.30;;
2313;SDS011;42279;51.388;7.000;2023-05-15T04:08:35;61.13;;;36.30;;
2313;SDS011;42279;51.388;7.000;2023-05-15T04:11:01;67.20;;;40.47;;
2313;SDS011;42279;51.388;7.000;2023-05-15T04:13:27;67.90;;;41.33;;
2313;SDS011;42279;51.388;7.000;2023-05-15T04:15:53;65.23;;;39.60;;
2313;SDS011;42279;51.388;7.000;2023-05-15T04:18:19;65.27;;;41.80;;
2313;SDS011;42279;51.388;7.000;2023-05-15T04:20:45;72.63;;;42.90;;
2313;SDS011;42279;51.388;7.000;2023-05-15T04:23:11;77.93;;;46.47;;
2313;SDS011;42279;51.388;7.000;2023-05-15T04:25:37;80.57;;;47.90;;
2313;SDS011;42279;51.388;7.000;2023-05-15T04:28:06;80.23;;;48.47;;
2313;SDS011;42279;51.388;7.000;2023-05-15T04:30:32;76.70;;;44.93;;
2313;SDS011;42279;51.388;7.000;2023-05-15T04:32:58;78.60;;;46.10;;
2313;SDS011;42279;51.388;7.000;2023-05-15T04:35:24;83.77;;;46.80;;
2313;SDS011;42279;51.388;7.000;2023-05-15T04:37:50;83.57;;;48.60;;
2313;SDS011;42279;51.388;7.000;2023-05-15T04:40:16;99.73;;;50.47;;
2313;SDS011;42279;51.388;7.000;2023-05-15T04:42:42;87.80;;;46.57;;
2313;SDS011;42279;51.388;7.000;2023-05-15T04:45:08;82.73;;;43.47;;
2313;SDS011;42279;51.388;7.000;2023-05-15T04:47:34;100.57;;;50.70;;
2313;SDS011;42279;51.388;7.000;2023-05-15T04:50:00;93.67;;;50.33;;
2313;SDS011;42279;51.388;7.000;2023-05-15T04:52:26;95.30;;;48.30;;
2313;SDS011;42279;51.388;7.000;2023-05-15T04:54:52;89.27;;;47.43;;
2313;SDS011;42279;51.388;7.000;2023-05-15T04:57:19;81.57;;;42.20;;
2313;SDS011;42279;51.388;7.000;2023-05-15T04:59:46;94.90;;;43.60;;
2313;SDS011;42279;51.388;7.000;2023-05-15T05:02:11;99.40;;;48.30;;
2313;SDS011;42279;51.388;7.000;2023-05-15T05:04:40;88.57;;;44.60;;
2313;SDS011;42279;51.388;7.000;2023-05-15T05:07:06;84.63;;;43.47;;
2313;SDS011;42279;51.388;7.000;2023-05-15T05:09:33;87.10;;;44.63;;
2313;SDS011;42279;51.388;7.000;2023-05-15T05:11:59;90.57;;;46.10;;
2313;SDS011;42279;51.388;7.000;2023-05-15T05:14:26;93.93;;;46.87;;
2313;SDS011;42279;51.388;7.000;2023-05-15T05:16:52;92.33;;;44.40;;
2313;SDS011;42279;51.388;7.000;2023-05-15T05:19:18;86.10;;;46.60;;
2313;SDS011;42279;51.388;7.000;2023-05-15T05:21:43;95.60;;;47.07;;
2313;SDS011;42279;51.388;7.000;2023-05-15T05:24:10;82.80;;;42.40;;
2313;SDS011;42279;51.388;7.000;2023-05-15T05:26:36;86.53;;;44.00;;
2313;SDS011;42279;51.388;7.000;2023-05-15T05:29:02;92.80;;;46.93;;
2313;SDS011;42279;51.388;7.000;2023-05-15T05:31:28;84.43;;;41.83;;
2313;SDS011;42279;51.388;7.000;2023-05-15T05:33:54;97.93;;;45.70;;
2313;SDS011;42279;51.388;7.000;2023-05-15T05:36:20;85.07;;;44.90;;
2313;SDS011;42279;51.388;7.000;2023-05-15T05:38:46;93.37;;;45.77;;
2313;SDS011;42279;51.388;7.000;2023-05-15T05:41:12;97.53;;;48.90;;
2313;SDS011;42279;51.388;7.000;2023-05-15T05:43:38;87.47;;;45.83;;
2313;SDS011;42279;51.388;7.000;2023-05-15T05:46:04;81.00;;;43.70;;
2313;SDS011;42279;51.388;7.000;2023-05-15T05:48:30;82.90;;;43.23;;
2313;SDS011;42279;51.388;7.000;2023-05-15T05:50:56;86.70;;;42.20;;
2313;SDS011;42279;51.388;7.000;2023-05-15T05:53:22;102.60;;;47.53;;
2313;SDS011;42279;51.388;7.000;2023-05-15T05:55:48;106.80;;;48.30;;
2313;SDS011;42279;51.388;7.000;2023-05-15T05:58:14;99.93;;;47.93;;
2313;SDS011;42279;51.388;7.000;2023-05-15T06:00:41;105.13;;;56.83;;
2313;SDS011;42279;51.388;7.000;2023-05-15T06:03:07;89.27;;;45.70;;
2313;SDS011;42279;51.388;7.000;2023-05-15T06:05:33;107.20;;;51.70;;
2313;SDS011;42279;51.388;7.000;2023-05-15T06:07:59;95.87;;;50.50;;
2313;SDS011;42279;51.388;7.000;2023-05-15T06:10:28;104.17;;;51.70;;
2313;SDS011;42279;51.388;7.000;2023-05-15T06:12:54;107.87;;;53.20;;
2313;SDS011;42279;51.388;7.000;2023-05-15T06:15:20;108.87;;;50.73;;
2313;SDS011;42279;51.388;7.000;2023-05-15T06:17:46;109.57;;;52.70;;
2313;SDS011;42279;51.388;7.000;2023-05-15T06:20:13;98.53;;;53.23;;
2313;SDS011;42279;51.388;7.000;2023-05-15T06:22:39;94.37;;;49.27;;
2313;SDS011;42279;51.388;7.000;2023-05-15T06:25:06;101.83;;;50.70;;
2313;SDS011;42279;51.388;7.000;2023-05-15T06:27:32;89.33;;;49.77;;
2313;SDS011;42279;51.388;7.000;2023-05-15T06:29:58;80.20;;;44.13;;
2313;SDS011;42279;51.388;7.000;2023-05-15T06:32:24;79.00;;;45.33;;
2313;SDS011;42279;51.388;7.000;2023-05-15T06:34:51;70.03;;;43.40;;
2313;SDS011;42279;51.388;7.000;2023-05-15T06:37:17;62.50;;;41.30;;
2313;SDS011;42279;51.388;7.000;2023-05-15T06:39:43;70.97;;;40.90;;
2313;SDS011;42279;51.388;7.000;2023-05-15T06:42:09;72.57;;;41.83;;
2313;SDS011;42279;51.388;7.000;2023-05-15T06:44:35;65.07;;;41.80;;
2313;SDS011;42279;51.388;7.000;2023-05-15T06:47:01;71.60;;;45.20;;
2313;SDS011;42279;51.388;7.000;2023-05-15T06:49:27;72.37;;;44.40;;
2313;SDS011;42279;51.388;7.000;2023-05-15T06:51:53;69.50;;;42.10;;
2313;SDS011;42279;51.388;7.000;2023-05-15T06:54:19;69.93;;;42.60;;
2313;SDS011;42279;51.388;7.000;2023-05-15T06:56:45;62.57;;;40.67;;
2313;SDS011;42279;51.388;7.000;2023-05-15T06:59:11;60.33;;;41.03;;
2313;SDS011;42279;51.388;7.000;2023-05-15T07:01:37;62.20;;;40.63;;
2313;SDS011;42279;51.388;7.000;2023-05-15T07:04:03;53.20;;;37.47;;
2313;SDS011;42279;51.388;7.000;2023-05-15T07:06:30;55.37;;;38.70;;
2313;SDS011;42279;51.388;7.000;2023-05-15T07:08:56;50.50;;;32.47;;
2313;SDS011;42279;51.388;7.000;2023-05-15T07:11:22;54.33;;;35.87;;
2313;SDS011;42279;51.388;7.000;2023-05-15T07:13:48;56.67;;;37.60;;
2313;SDS011;42279;51.388;7.000;2023-05-15T07:16:14;51.93;;;37.60;;
2313;SDS011;42279;51.388;7.000;2023-05-15T07:18:40;52.70;;;36.50;;
2313;SDS011;42279;51.388;7.000;2023-05-15T07:21:06;48.90;;;36.70;;
2313;SDS011;42279;51.388;7.000;2023-05-15T07:23:32;49.50;;;38.83;;
2313;SDS011;42279;51.388;7.000;2023-05-15T07:25:57;47.90;;;34.50;;
2313;SDS011;42279;51.388;7.000;2023-05-15T07:28:23;51.90;;;38.10;;
2313;SDS011;42279;51.388;7.000;2023-05-15T07:30:49;46.90;;;35.47;;
2313;SDS011;42279;51.388;7.000;2023-05-15T07:33:16;47.13;;;34.80;;
2313;SDS011;42279;51.388;7.000;2023-05-15T07:35:42;43.57;;;34.53;;
2313;SDS011;42279;51.388;7.000;2023-05-15T07:38:08;37.43;;;30.37;;
2313;SDS011;42279;51.388;7.000;2023-05-15T07:40:34;34.70;;;29.70;;
2313;SDS011;42279;51.388;7.000;2023-05-15T07:43:00;31.63;;;26.83;;
2313;SDS011;42279;51.388;7.000;2023-05-15T07:45:26;34.57;;;28.47;;
2313;SDS011;42279;51.388;7.000;2023-05-15T07:47:52;35.10;;;28.53;;
2313;SDS011;42279;51.388;7.000;2023-05-15T07:50:19;30.53;;;27.47;;
2313;SDS011;42279;51.388;7.000;2023-05-15T07:52:45;28.60;;;25.50;;
2313;SDS011;42279;51.388;7.000;2023-05-15T07:55:11;29.97;;;25.03;;
2313;SDS011;42279;51.388;7.000;2023-05-15T07:57:37;26.27;;;23.60;;
2313;SDS011;42279;51.388;7.000;2023-05-15T08:00:07;29.60;;;26.63;;
2313;SDS011;42279;51.388;7.000;2023-05-15T08:02:38;25.10;;;22.40;;
2313;SDS011;42279;51.388;7.000;2023-05-15T08:05:04;29.20;;;26.20;;
2313;SDS011;42279;51.388;7.000;2023-05-15T08:07:31;21.60;;;19.70;;
2313;SDS011;42279;51.388;7.000;2023-05-15T08:09:59;28.10;;;25.57;;
2313;SDS011;42279;51.388;7.000;2023-05-15T08:12:26;32.20;;;23.70;;
2313;SDS011;42279;51.388;7.000;2023-05-15T08:14:52;31.13;;;27.07;;
2313;SDS011;42279;51.388;7.000;2023-05-15T08:25:55;29.50;;;26.23;;
2313;SDS011;42279;51.388;7.000;2023-05-15T08:28:21;31.73;;;28.73;;
2313;SDS011;42279;51.388;7.000;2023-05-15T08:30:47;28.60;;;26.07;;
2313;SDS011;42279;51.388;7.000;2023-05-15T08:33:13;30.97;;;27.83;;
2313;SDS011;42279;51.388;7.000;2023-05-15T08:35:39;30.73;;;27.47;;
2313;SDS011;42279;51.388;7.000;2023-05-15T08:38:05;30.53;;;27.53;;
2313;SDS011;42279;51.388;7.000;2023-05-15T08:40:31;33.20;;;30.30;;
2313;SDS011;42279;51.388;7.000;2023-05-15T08:43:02;34.83;;;30.73;;
2313;SDS011;42279;51.388;7.000;2023-05-15T08:45:30;34.77;;;31.07;;
2313;SDS011;42279;51.388;7.000;2023-05-15T08:47:57;34.67;;;31.27;;
2313;SDS011;42279;51.388;7.000;2023-05-15T08:50:23;35.63;;;32.03;;
2313;SDS011;42279;51.388;7.000;2023-05-15T08:52:49;33.70;;;30.30;;
2313;SDS011;42279;51.388;7.000;2023-05-15T08:55:16;31.13;;;28.03;;
2313;SDS011;42279;51.388;7.000;2023-05-15T08:57:42;32.40;;;29.30;;
2313;SDS011;42279;51.388;7.000;2023-05-15T09:00:09;32.00;;;28.93;;
2313;SDS011;42279;51.388;7.000;2023-05-15T09:02:39;29.57;;;27.17;;
2313;SDS011;42279;51.388;7.000;2023-05-15T09:05:07;28.70;;;26.10;;
2313;SDS011;42279;51.388;7.000;2023-05-15T09:07:34;26.37;;;24.03;;
2313;SDS011;42279;51.388;7.000;2023-05-15T09:10:00;24.70;;;22.50;;
2313;SDS011;42279;51.388;7.000;2023-05-15T09:12:26;21.27;;;19.63;;
2313;SDS011;42279;51.388;7.000;2023-05-15T09:15:06;21.73;;;19.90;;
2313;SDS011;42279;51.388;7.000;2023-05-15T09:17:32;21.00;;;18.80;;
2313;SDS011;42279;51.388;7.000;2023-05-15T09:19:58;18.60;;;16.90;;
2313;SDS011;42279;51.388;7.000;2023-05-15T09:22:24;20.90;;;19.00;;
2313;SDS011;42279;51.388;7.000;2023-05-15T09:24:51;18.23;;;16.83;;
2313;SDS011;42279;51.388;7.000;2023-05-15T09:27:17;20.70;;;19.10;;
2313;SDS011;42279;51.388;7.000;2023-05-15T09:29:44;20.63;;;18.63;;
2313;SDS011;42279;51.388;7.000;2023-05-15T09:32:11;19.90;;;17.90;;
2313;SDS011;42279;51.388;7.000;2023-05-15T09:34:41;18.17;;;16.80;;
2313;SDS011;42279;51.388;7.000;2023-05-15T09:37:08;16.00;;;14.60;;
2313;SDS011;42279;51.388;7.000;2023-05-15T09:39:44;19.03;;;16.93;;
2313;SDS011;42279;51.388;7.000;2023-05-15T09:42:11;18.40;;;16.47;;
2313;SDS011;42279;51.388;7.000;2023-05-15T09:44:41;18.03;;;16.53;;
2313;SDS011;42279;51.388;7.000;2023-05-15T09:47:07;16.20;;;14.80;;
2313;SDS011;42279;51.388;7.000;2023-05-15T09:49:33;17.93;;;16.10;;
2313;SDS011;42279;51.388;7.000;2023-05-15T09:52:00;16.03;;;14.73;;
2313;SDS011;42279;51.388;7.000;2023-05-15T09:54:29;16.40;;;14.97;;
2313;SDS011;42279;51.388;7.000;2023-05-15T09:56:56;15.00;;;13.73;;
2313;SDS011;42279;51.388;7.000;2023-05-15T09:59:31;14.53;;;13.43;;
2313;SDS011;42279;51.388;7.000;2023-05-15T10:01:57;15.63;;;14.23;;
2313;SDS011;42279;51.388;7.000;2023-05-15T10:04:23;14.57;;;13.27;;
2313;SDS011;42279;51.388;7.000;2023-05-15T10:06:50;16.10;;;14.53;;
2313;SDS011;42279;51.388;7.000;2023-05-15T10:09:17;16.07;;;15.07;;
2313;SDS011;42279;51.388;7.000;2023-05-15T10:11:49;15.83;;;14.50;;
2313;SDS011;42279;51.388;7.000;2023-05-15T10:14:18;15.80;;;14.50;;
2313;SDS011;42279;51.388;7.000;2023-05-15T10:16:44;15.83;;;14.63;;
2313;SDS011;42279;51.388;7.000;2023-05-15T10:19:11;15.77;;;14.63;;
2313;SDS011;42279;51.388;7.000;2023-05-15T10:21:38;17.77;;;15.97;;
2313;SDS011;42279;51.388;7.000;2023-05-15T10:24:04;15.53;;;14.20;;
2313;SDS011;42279;51.388;7.000;2023-05-15T10:26:35;16.57;;;15.47;;
2313;SDS011;42279;51.388;7.000;2023-05-15T10:29:11;14.40;;;13.20;;
2313;SDS011;42279;51.388;7.000;2023-05-15T10:31:40;14.97;;;13.47;;
2313;SDS011;42279;51.388;7.000;2023-05-15T10:34:07;14.03;;;13.03;;
2313;SDS011;42279;51.388;7.000;2023-05-15T10:36:34;16.20;;;14.97;;
2313;SDS011;42279;51.388;7.000;2023-05-15T10:39:01;13.67;;;12.70;;
2313;SDS011;42279;51.388;7.000;2023-05-15T10:41:27;13.30;;;12.30;;
2313;SDS011;42279;51.388;7.000;2023-05-15T10:43:56;14.73;;;13.60;;
2313;SDS011;42279;51.388;7.000;2023-05-15T10:46:22;13.20;;;12.10;;
2313;SDS011;42279;51.388;7.000;2023-05-15T10:48:49;13.17;;;12.00;;
2313;SDS011;42279;51.388;7.000;2023-05-15T10:51:37;16.10;;;14.70;;
2313;SDS011;42279;51.388;7.000;2023-05-15T10:54:04;11.63;;;10.83;;
2313;SDS011;42279;51.388;7.000;2023-05-15T10:56:33;11.60;;;10.50;;
2313;SDS011;42279;51.388;7.000;2023-05-15T10:59:08;13.67;;;12.47;;
2313;SDS011;42279;51.388;7.000;2023-05-15T11:01:35;14.33;;;13.27;;
2313;SDS011;42279;51.388;7.000;2023-05-15T11:06:35;13.47;;;12.67;;
2313;SDS011;42279;51.388;7.000;2023-05-15T11:14:33;12.80;;;12.00;;
2313;SDS011;42279;51.388;7.000;2023-05-15T11:17:01;13.83;;;12.63;;
2313;SDS011;42279;51.388;7.000;2023-05-15T11:22:01;14.00;;;12.73;;
2313;SDS011;42279;51.388;7.000;2023-05-15T11:24:30;15.23;;;14.23;;
2313;SDS011;42279;51.388;7.000;2023-05-15T11:27:00;13.23;;;12.23;;
2313;SDS011;42279;51.388;7.000;2023-05-15T11:29:27;14.73;;;13.03;;
2313;SDS011;42279;51.388;7.000;2023-05-15T11:31:53;13.23;;;11.07;;
2313;SDS011;42279;51.388;7.000;2023-05-15T11:34:29;12.67;;;11.87;;
2313;SDS011;42279;51.388;7.000;2023-05-15T11:36:56;13.07;;;11.97;;
2313;SDS011;42279;51.388;7.000;2023-05-15T11:39:24;12.70;;;11.80;;
2313;SDS011;42279;51.388;7.000;2023-05-15T11:41:50;12.70;;;11.80;;
2313;SDS011;42279;51.388;7.000;2023-05-15T11:44:22;11.37;;;10.70;;
2313;SDS011;42279;51.388;7.000;2023-05-15T11:46:49;12.50;;;11.60;;
2313;SDS011;42279;51.388;7.000;2023-05-15T11:49:17;13.23;;;12.53;;
2313;SDS011;42279;51.388;7.000;2023-05-15T11:51:43;13.00;;;11.70;;
2313;SDS011;42279;51.388;7.000;2023-05-15T11:54:10;10.60;;;10.10;;
2313;SDS011;42279;51.388;7.000;2023-05-15T11:56:40;11.17;;;10.37;;
2313;SDS011;42279;51.388;7.000;2023-05-15T11:59:13;10.93;;;10.00;;
2313;SDS011;42279;51.388;7.000;2023-05-15T12:01:42;10.90;;;9.80;;
2313;SDS011;42279;51.388;7.000;2023-05-15T12:04:11;12.47;;;11.47;;
2313;SDS011;42279;51.388;7.000;2023-05-15T12:06:38;11.30;;;10.50;;
2313;SDS011;42279;51.388;7.000;2023-05-15T12:09:05;11.60;;;10.70;;
2313;SDS011;42279;51.388;7.000;2023-05-15T12:11:32;11.30;;;10.50;;
2313;SDS011;42279;51.388;7.000;2023-05-15T12:13:58;9.87;;;9.10;;
2313;SDS011;42279;51.388;7.000;2023-05-15T12:16:25;8.67;;;8.10;;
2313;SDS011;42279;51.388;7.000;2023-05-15T12:18:51;7.83;;;7.30;;
2313;SDS011;42279;51.388;7.000;2023-05-15T12:21:17;11.10;;;6.83;;
2313;SDS011;42279;51.388;7.000;2023-05-15T12:23:52;5.17;;;4.77;;
2313;SDS011;42279;51.388;7.000;2023-05-15T12:26:19;6.67;;;6.10;;
2313;SDS011;42279;51.388;7.000;2023-05-15T12:28:47;6.87;;;6.37;;
2313;SDS011;42279;51.388;7.000;2023-05-15T12:31:13;7.70;;;7.40;;
2313;SDS011;42279;51.388;7.000;2023-05-15T12:33:41;7.97;;;7.47;;
2313;SDS011;42279;51.388;7.000;2023-05-15T12:36:07;7.93;;;7.53;;
2313;SDS011;42279;51.388;7.000;2023-05-15T12:38:43;7.53;;;7.23;;
2313;SDS011;42279;51.388;7.000;2023-05-15T12:41:09;10.63;;;9.90;;
2313;SDS011;42279;51.388;7.000;2023-05-15T12:43:36;7.33;;;7.03;;
2313;SDS011;42279;51.388;7.000;2023-05-15T12:46:02;9.80;;;9.30;;
2313;SDS011;42279;51.388;7.000;2023-05-15T12:48:28;8.67;;;8.07;;
2313;SDS011;42279;51.388;7.000;2023-05-15T12:50:56;9.90;;;9.20;;
2313;SDS011;42279;51.388;7.000;2023-05-15T12:53:30;11.87;;;10.90;;
2313;SDS011;42279;51.388;7.000;2023-05-15T12:55:58;12.47;;;11.40;;
2313;SDS011;42279;51.388;7.000;2023-05-15T12:58:24;8.23;;;7.90;;
2313;SDS011;42279;51.388;7.000;2023-05-15T13:00:54;9.30;;;8.27;;
2313;SDS011;42279;51.388;7.000;2023-05-15T13:03:20;9.60;;;9.10;;
2313;SDS011;42279;51.388;7.000;2023-05-15T13:05:46;9.70;;;9.20;;
2313;SDS011;42279;51.388;7.000;2023-05-15T13:08:16;10.87;;;10.17;;
2313;SDS011;42279;51.388;7.000;2023-05-15T13:10:43;9.33;;;8.50;;
2313;SDS011;42279;51.388;7.000;2023-05-15T13:13:09;10.67;;;9.80;;
2313;SDS011;42279;51.388;7.000;2023-05-15T13:15:42;12.17;;;11.17;;
2313;SDS011;42279;51.388;7.000;2023-05-15T13:23:07;8.57;;;8.07;;
2313;SDS011;42279;51.388;7.000;2023-05-15T13:25:33;10.87;;;9.97;;
2313;SDS011;42279;51.388;7.000;2023-05-15T13:28:01;11.60;;;10.60;;
2313;SDS011;42279;51.388;7.000;2023-05-15T13:30:27;10.80;;;10.10;;
2313;SDS011;42279;51.388;7.000;2023-05-15T13:32:54;10.80;;;10.10;;
2313;SDS011;42279;51.388;7.000;2023-05-15T13:35:20;11.80;;;10.70;;
2313;SDS011;42279;51.388;7.000;2023-05-15T13:37:46;13.90;;;12.90;;
2313;SDS011;42279;51.388;7.000;2023-05-15T13:40:12;14.50;;;13.50;;
2313;SDS011;42279;51.388;7.000;2023-05-15T13:42:39;12.47;;;11.53;;
2313;SDS011;42279;51.388;7.000;2023-05-15T13:45:05;13.73;;;12.10;;
2313;SDS011;42279;51.388;7.000;2023-05-15T13:47:32;10.83;;;10.23;;
2313;SDS011;42279;51.388;7.000;2023-05-15T13:49:58;11.80;;;10.63;;
2313;SDS011;42279;51.388;7.000;2023-05-15T13:52:25;9.37;;;8.80;;
2313;SDS011;42279;51.388;7.000;2023-05-15T13:54:52;13.67;;;12.27;;
2313;SDS011;42279;51.388;7.000;2023-05-15T13:57:18;15.90;;;14.70;;
2313;SDS011;42279;51.388;7.000;2023-05-15T13:59:44;18.47;;;16.70;;
2313;SDS011;42279;51.388;7.000;2023-05-15T14:02:10;18.70;;;16.87;;
2313;SDS011;42279;51.388;7.000;2023-05-15T14:04:36;19.00;;;17.27;;
2313;SDS011;42279;51.388;7.000;2023-05-15T14:07:02;19.10;;;17.67;;
2313;SDS011;42279;51.388;7.000;2023-05-15T14:09:28;21.27;;;18.97;;
2313;SDS011;42279;51.388;7.000;2023-05-15T14:11:54;22.30;;;20.20;;
2313;SDS011;42279;51.388;7.000;2023-05-15T14:14:20;21.93;;;19.83;;
2313;SDS011;42279;51.388;7.000;2023-05-15T14:16:46;22.67;;;20.80;;
2313;SDS011;42279;51.388;7.000;2023-05-15T14:19:13;21.73;;;20.00;;
2313;SDS011;42279;51.388;7.000;2023-05-15T14:21:39;21.43;;;19.57;;
2313;SDS011;42279;51.388;7.000;2023-05-15T14:24:05;21.30;;;19.20;;
2313;SDS011;42279;51.388;7.000;2023-05-15T14:26:31;22.90;;;21.10;;
2313;SDS011;42279;51.388;7.000;2023-05-15T14:28:57;20.47;;;18.67;;
2313;SDS011;42279;51.388;7.000;2023-05-15T14:31:24;19.00;;;17.40;;
2313;SDS011;42279;51.388;7.000;2023-05-15T14:33:50;16.10;;;14.70;;
2313;SDS011;42279;51.388;7.000;2023-05-15T14:36:19;16.20;;;15.00;;
2313;SDS011;42279;51.388;7.000;2023-05-15T14:38:45;13.60;;;12.50;;
2313;SDS011;42279;51.388;7.000;2023-05-15T14:41:13;11.00;;;10.30;;
2313;SDS011;42279;51.388;7.000;2023-05-15T14:43:39;12.50;;;11.60;;
2313;SDS011;42279;51.388;7.000;2023-05-15T14:46:05;13.60;;;12.23;;
2313;SDS011;42279;51.388;7.000;2023-05-15T14:48:31;13.67;;;12.37;;
2313;SDS011;42279;51.388;7.000;2023-05-15T14:50:58;15.07;;;13.80;;
2313;SDS011;42279;51.388;7.000;2023-05-15T14:53:24;16.97;;;15.30;;
2313;SDS011;42279;51.388;7.000;2023-05-15T14:55:50;18.97;;;17.33;;
2313;SDS011;42279;51.388;7.000;2023-05-15T14:58:16;19.90;;;17.80;;
2313;SDS011;42279;51.388;7.000;2023-05-15T15:00:43;19.07;;;17.30;;
2313;SDS011;42279;51.388;7.000;2023-05-15T15:03:09;19.60;;;17.60;;
2313;SDS011;42279;51.388;7.000;2023-05-15T15:05:35;20.20;;;18.10;;
2313;SDS011;42279;51.388;7.000;2023-05-15T15:08:07;18.03;;;16.30;;